createdAt,value
2017-01-06T00:00:13.665Z,1024.23
2017-01-06T00:00:35.986Z,1024.24
2017-01-06T00:00:58.927Z,1024.17
2017-01-06T00:01:21.001Z,1024.24
2017-01-06T00:01:43.676Z,1024.20
2017-01-06T00:02:06.521Z,1024.28
2017-01-06T00:02:29.654Z,1024.24
2017-01-06T00:02:54.845Z,1024.25
2017-01-06T00:03:17.015Z,1024.21
2017-01-06T00:03:41.437Z,1024.17
2017-01-06T00:04:08.675Z,1024.22
2017-01-06T00:04:35.712Z,1024.23
2017-01-06T00:05:30.020Z,1024.17
2017-01-06T00:05:52.716Z,1024.22
2017-01-06T00:06:16.005Z,1024.26
2017-01-06T00:06:39.104Z,1024.22
2017-01-06T00:07:02.008Z,1024.18
2017-01-06T00:07:24.016Z,1024.17
2017-01-06T00:07:46.688Z,1024.09
2017-01-06T00:08:09.626Z,1024.24
2017-01-06T00:08:32.022Z,1024.23
2017-01-06T00:08:54.685Z,1024.20
2017-01-06T00:09:18.337Z,1024.20
2017-01-06T00:09:41.377Z,1024.17
2017-01-06T00:10:04.520Z,1024.21
2017-01-06T00:10:27.458Z,1024.20
2017-01-06T00:10:50.013Z,1024.25
2017-01-06T00:11:13.436Z,1024.21
2017-01-06T00:11:36.477Z,1024.00
2017-01-06T00:11:59.319Z,1024.05
2017-01-06T00:12:22.464Z,1024.23
2017-01-06T00:12:45.009Z,1024.18
2017-01-06T00:13:08.016Z,1024.24
2017-01-06T00:13:30.656Z,1024.20
2017-01-06T00:13:53.491Z,1024.27
2017-01-06T00:14:16.531Z,1024.26
2017-01-06T00:14:39.469Z,1024.28
2017-01-06T00:15:02.032Z,1024.28
2017-01-06T00:15:25.007Z,1024.26
2017-01-06T00:15:47.974Z,1024.25
2017-01-06T00:16:10.706Z,1024.24
2017-01-06T00:16:33.645Z,1024.32
2017-01-06T00:16:56.589Z,1024.23
2017-01-06T00:17:19.828Z,1024.30
2017-01-06T00:17:42.458Z,1024.25
2017-01-06T00:18:04.679Z,1024.15
2017-01-06T00:18:27.924Z,1024.22
2017-01-06T00:18:50.656Z,1024.20
2017-01-06T00:19:13.493Z,1024.27
2017-01-06T00:19:41.653Z,1024.20
2017-01-06T00:20:04.488Z,1024.27
2017-01-06T00:20:27.529Z,1024.21
2017-01-06T00:20:50.241Z,1024.12
2017-01-06T00:21:12.688Z,1024.20
2017-01-06T00:21:35.933Z,1024.11
2017-01-06T00:21:58.870Z,1024.28
2017-01-06T00:22:21.706Z,1024.18
2017-01-06T00:22:44.644Z,1024.17
2017-01-06T00:23:07.480Z,1024.18
2017-01-06T00:23:30.213Z,1024.22
2017-01-06T00:23:53.029Z,1024.19
2017-01-06T00:24:15.678Z,1024.18
2017-01-06T00:24:38.719Z,1024.15
2017-01-06T00:25:01.657Z,1024.19
2017-01-06T00:25:24.492Z,1024.14
2017-01-06T00:25:47.327Z,1024.13
2017-01-06T00:26:10.377Z,1024.18
2017-01-06T00:26:33.023Z,1024.20
2017-01-06T00:26:56.021Z,1024.14
2017-01-06T00:27:18.590Z,1024.10
2017-01-06T00:27:41.616Z,1024.09
2017-01-06T00:28:04.545Z,1024.12
2017-01-06T00:28:27.482Z,1024.18
2017-01-06T00:28:50.036Z,1024.12
2017-01-06T00:29:13.023Z,1024.11
2017-01-06T00:29:35.681Z,1024.14
2017-01-06T00:29:58.722Z,1024.06
2017-01-06T00:30:21.967Z,1024.10
2017-01-06T00:30:44.700Z,1024.08
2017-01-06T00:31:07.740Z,1024.12
2017-01-06T00:31:30.678Z,1024.09
2017-01-06T00:31:53.514Z,1024.13
2017-01-06T00:32:16.554Z,1024.17
2017-01-06T00:32:39.495Z,1024.08
2017-01-06T00:33:02.225Z,1024.12
2017-01-06T00:33:25.017Z,1024.13
2017-01-06T00:33:47.691Z,1024.01
2017-01-06T00:34:10.730Z,1024.11
2017-01-06T00:34:33.568Z,1024.08
2017-01-06T00:34:56.509Z,1024.14
2017-01-06T00:35:19.851Z,1024.13
2017-01-06T00:35:42.790Z,1024.14
2017-01-06T00:36:05.728Z,1024.17
2017-01-06T00:36:28.665Z,1024.11
2017-01-06T00:36:51.047Z,1024.17
2017-01-06T00:37:13.744Z,1024.12
2017-01-06T00:37:36.966Z,1024.10
2017-01-06T00:37:59.700Z,1024.12
2017-01-06T00:38:22.228Z,1024.14
2017-01-06T00:38:45.048Z,1024.13
2017-01-06T00:39:07.696Z,1024.14
2017-01-06T00:39:30.734Z,1024.13
2017-01-06T00:39:53.672Z,1024.18
2017-01-06T00:40:17.430Z,1024.08
2017-01-06T00:40:40.368Z,1024.18
2017-01-06T00:41:03.049Z,1024.14
2017-01-06T00:41:26.345Z,1024.14
2017-01-06T00:41:49.050Z,1024.11
2017-01-06T00:42:11.710Z,1024.13
2017-01-06T00:42:34.340Z,1024.04
2017-01-06T00:42:57.380Z,1024.09
2017-01-06T00:43:20.058Z,1024.18
2017-01-06T00:43:42.850Z,1024.12
2017-01-06T00:44:05.681Z,1024.10
2017-01-06T00:44:28.723Z,1024.13
2017-01-06T00:44:51.659Z,1024.12
2017-01-06T00:45:14.495Z,1024.20
2017-01-06T00:45:37.059Z,1024.19
2017-01-06T00:46:00.051Z,1024.17
2017-01-06T00:46:22.694Z,1024.19
2017-01-06T00:46:45.530Z,1024.14
2017-01-06T00:47:08.673Z,1024.20
2017-01-06T00:47:31.611Z,1024.18
2017-01-06T00:47:54.958Z,1024.07
2017-01-06T00:48:17.691Z,1024.03
2017-01-06T00:48:40.527Z,1024.08
2017-01-06T00:49:03.568Z,1024.17
2017-01-06T00:49:29.036Z,1024.16
2017-01-06T00:49:51.695Z,1024.15
2017-01-06T00:50:14.531Z,1024.15
2017-01-06T00:50:37.571Z,1024.15
2017-01-06T00:51:00.508Z,1024.08
2017-01-06T00:51:23.345Z,1024.24
2017-01-06T00:51:46.067Z,1024.22
2017-01-06T00:52:09.632Z,1024.17
2017-01-06T00:52:33.592Z,1024.17
2017-01-06T00:52:56.529Z,1024.23
2017-01-06T00:53:19.676Z,1024.19
2017-01-06T00:53:42.509Z,1024.15
2017-01-06T00:54:05.242Z,1024.11
2017-01-06T00:54:28.383Z,1024.13
2017-01-06T00:54:51.526Z,1024.21
2017-01-06T00:55:23.066Z,1024.26
2017-01-06T00:55:46.051Z,1024.11
2017-01-06T00:56:13.652Z,1024.19
2017-01-06T00:56:36.384Z,1024.28
2017-01-06T00:57:03.726Z,1024.19
2017-01-06T00:57:26.766Z,1024.19
2017-01-06T00:57:49.705Z,1024.11
2017-01-06T00:58:12.949Z,1024.31
2017-01-06T00:58:35.887Z,1024.18
2017-01-06T00:58:58.721Z,1024.38
2017-01-06T00:59:21.762Z,1024.43
2017-01-06T00:59:44.597Z,1024.31
2017-01-06T01:00:07.535Z,1024.31
2017-01-06T01:00:30.370Z,1024.34
2017-01-06T01:00:57.917Z,1024.33
2017-01-06T01:01:20.445Z,1024.38
2017-01-06T01:01:43.091Z,1024.26
2017-01-06T01:02:05.603Z,1024.39
2017-01-06T01:02:28.441Z,1024.32
2017-01-06T01:02:51.377Z,1024.36
2017-01-06T01:03:14.421Z,1024.37
2017-01-06T01:03:37.458Z,1024.37
2017-01-06T01:04:00.500Z,1024.35
2017-01-06T01:04:24.121Z,1024.25
2017-01-06T01:04:46.989Z,1024.24
2017-01-06T01:05:09.078Z,1024.26
2017-01-06T01:05:31.839Z,1024.41
2017-01-06T01:05:55.597Z,1024.29
2017-01-06T01:06:18.637Z,1024.33
2017-01-06T01:06:41.678Z,1024.21
2017-01-06T01:07:04.615Z,1024.32
2017-01-06T01:07:27.656Z,1024.33
2017-01-06T01:07:50.797Z,1024.30
2017-01-06T01:08:14.761Z,1024.31
2017-01-06T01:08:43.085Z,1024.31
2017-01-06T01:09:38.084Z,1024.36
2017-01-06T01:10:00.746Z,1024.32
2017-01-06T01:10:23.786Z,1024.33
2017-01-06T01:10:46.086Z,1024.36
2017-01-06T01:11:08.842Z,1024.16
2017-01-06T01:11:32.701Z,1024.39
2017-01-06T01:13:13.566Z,1024.36
2017-01-06T01:13:38.100Z,1024.36
2017-01-06T01:14:05.485Z,1024.38
2017-01-06T01:14:28.096Z,1024.38
2017-01-06T01:14:51.771Z,1024.34
2017-01-06T01:15:15.068Z,1024.27
2017-01-06T01:15:38.670Z,1024.30
2017-01-06T01:16:02.631Z,1024.33
2017-01-06T01:16:25.671Z,1024.36
2017-01-06T01:16:55.879Z,1024.29
2017-01-06T01:17:32.028Z,1024.32
2017-01-06T01:17:54.102Z,1024.25
2017-01-06T01:18:21.692Z,1024.35
2017-01-06T01:19:20.981Z,1024.28
2017-01-06T01:19:49.044Z,1024.42
2017-01-06T01:20:11.670Z,1024.36
2017-01-06T01:20:34.199Z,1024.37
2017-01-06T01:20:57.075Z,1024.56
2017-01-06T01:21:20.797Z,1024.43
2017-01-06T01:21:43.730Z,1024.41
2017-01-06T01:22:11.685Z,1024.32
2017-01-06T01:22:34.930Z,1024.48
2017-01-06T01:22:58.111Z,1024.47
2017-01-06T01:23:25.414Z,1024.42
2017-01-06T01:23:49.377Z,1024.45
2017-01-06T01:24:12.622Z,1024.44
2017-01-06T01:24:35.558Z,1024.42
2017-01-06T01:24:58.907Z,1024.47
2017-01-06T01:26:22.465Z,1024.50
2017-01-06T01:26:50.831Z,1024.47
2017-01-06T01:27:19.400Z,1024.42
2017-01-06T01:27:47.766Z,1024.51
2017-01-06T01:28:19.817Z,1024.57
2017-01-06T01:28:45.417Z,1024.50
2017-01-06T01:29:12.761Z,1024.50
2017-01-06T01:30:16.657Z,1024.39
2017-01-06T01:30:39.901Z,1024.46
2017-01-06T01:31:02.739Z,1024.45
2017-01-06T01:31:25.572Z,1024.37
2017-01-06T01:31:48.511Z,1024.33
2017-01-06T01:32:11.117Z,1024.40
2017-01-06T01:32:34.796Z,1024.40
2017-01-06T01:32:57.734Z,1024.42
2017-01-06T01:33:20.571Z,1024.47
2017-01-06T01:33:43.609Z,1024.42
2017-01-06T01:34:06.546Z,1024.43
2017-01-06T01:34:29.485Z,1024.41
2017-01-06T01:34:52.730Z,1024.38
2017-01-06T01:35:15.676Z,1024.52
2017-01-06T01:35:38.810Z,1024.41
2017-01-06T01:36:06.121Z,1024.50
2017-01-06T01:36:33.594Z,1024.58
2017-01-06T01:36:56.737Z,1024.54
2017-01-06T01:37:47.733Z,1024.57
2017-01-06T01:38:10.113Z,1024.50
2017-01-06T01:38:32.789Z,1024.44
2017-01-06T01:38:55.727Z,1024.55
2017-01-06T01:39:50.512Z,1024.38
2017-01-06T01:40:17.750Z,1024.71
2017-01-06T01:40:40.128Z,1024.68
2017-01-06T01:41:03.216Z,1024.52
2017-01-06T01:41:26.122Z,1024.49
2017-01-06T01:41:48.121Z,1024.54
2017-01-06T01:42:11.621Z,1024.60
2017-01-06T01:42:34.130Z,1024.59
2017-01-06T01:42:57.110Z,1024.53
2017-01-06T01:43:20.741Z,1024.60
2017-01-06T01:44:10.817Z,1024.66
2017-01-06T01:44:33.753Z,1024.64
2017-01-06T01:44:56.589Z,1024.65
2017-01-06T01:45:19.427Z,1024.66
2017-01-06T01:45:42.141Z,1024.63
2017-01-06T01:46:07.860Z,1024.61
2017-01-06T01:46:36.021Z,1024.54
2017-01-06T01:47:25.583Z,1024.53
2017-01-06T01:47:49.140Z,1024.58
2017-01-06T01:48:12.136Z,1024.51
2017-01-06T01:48:35.106Z,1024.63
2017-01-06T01:49:02.970Z,1024.52
2017-01-06T01:49:27.748Z,1024.63
2017-01-06T01:49:51.937Z,1024.61
2017-01-06T01:50:15.122Z,1024.61
2017-01-06T01:51:18.956Z,1024.62
2017-01-06T01:51:43.125Z,1024.59
2017-01-06T01:52:06.674Z,1024.59
2017-01-06T01:52:33.913Z,1024.66
2017-01-06T01:52:57.125Z,1024.66
2017-01-06T01:54:33.927Z,1024.70
2017-01-06T01:56:26.056Z,1024.61
2017-01-06T01:57:33.845Z,1024.60
2017-01-06T01:57:59.037Z,1024.59
2017-01-06T01:58:22.895Z,1024.61
2017-01-06T01:58:46.756Z,1024.56
2017-01-06T01:59:09.139Z,1024.56
2017-01-06T01:59:36.829Z,1024.65
2017-01-06T01:59:59.769Z,1024.56
2017-01-06T02:00:22.706Z,1024.57
2017-01-06T02:00:46.059Z,1024.62
2017-01-06T02:01:09.709Z,1024.58
2017-01-06T02:01:33.135Z,1024.53
2017-01-06T02:01:56.507Z,1024.57
2017-01-06T02:02:19.649Z,1024.62
2017-01-06T02:02:42.588Z,1024.63
2017-01-06T02:03:09.621Z,1024.67
2017-01-06T02:03:32.660Z,1024.63
2017-01-06T02:03:55.700Z,1024.63
2017-01-06T02:04:18.842Z,1024.50
2017-01-06T02:04:42.804Z,1024.63
2017-01-06T02:05:06.048Z,1024.53
2017-01-06T02:05:28.781Z,1024.55
2017-01-06T02:05:51.823Z,1024.63
2017-01-06T02:06:14.760Z,1024.69
2017-01-06T02:06:37.595Z,1024.61
2017-01-06T02:07:00.164Z,1024.56
2017-01-06T02:07:24.136Z,1024.65
2017-01-06T02:07:46.818Z,1024.69
2017-01-06T02:08:09.961Z,1024.66
2017-01-06T02:08:33.152Z,1024.59
2017-01-06T02:08:56.451Z,1024.67
2017-01-06T02:09:19.157Z,1024.65
2017-01-06T02:09:41.156Z,1024.69
2017-01-06T02:10:05.132Z,1024.71
2017-01-06T02:10:27.793Z,1024.62
2017-01-06T02:10:50.730Z,1024.64
2017-01-06T02:11:18.163Z,1024.70
2017-01-06T02:11:41.144Z,1024.75
2017-01-06T02:12:03.845Z,1024.75
2017-01-06T02:12:26.476Z,1024.59
2017-01-06T02:12:49.165Z,1024.58
2017-01-06T02:13:12.454Z,1024.58
2017-01-06T02:13:34.983Z,1024.72
2017-01-06T02:13:57.817Z,1024.74
2017-01-06T02:14:20.858Z,1024.59
2017-01-06T02:14:44.155Z,1024.72
2017-01-06T02:15:06.837Z,1024.65
2017-01-06T02:15:31.002Z,1024.67
2017-01-06T02:15:53.839Z,1024.79
2017-01-06T02:16:17.084Z,1024.77
2017-01-06T02:16:40.840Z,1024.82
2017-01-06T02:17:03.778Z,1024.70
2017-01-06T02:17:26.820Z,1024.65
2017-01-06T02:17:50.162Z,1024.72
2017-01-06T02:18:12.796Z,1024.74
2017-01-06T02:18:35.635Z,1024.72
2017-01-06T02:18:58.570Z,1024.64
2017-01-06T02:19:21.163Z,1024.70
2017-01-06T02:19:43.832Z,1024.75
2017-01-06T02:20:07.143Z,1024.74
2017-01-06T02:20:29.810Z,1024.73
2017-01-06T02:20:53.055Z,1024.76
2017-01-06T02:21:15.787Z,1024.80
2017-01-06T02:21:38.653Z,1024.71
2017-01-06T02:22:01.457Z,1024.77
2017-01-06T02:22:24.174Z,1024.73
2017-01-06T02:22:46.822Z,1024.75
2017-01-06T02:23:10.067Z,1024.82
2017-01-06T02:23:32.800Z,1024.67
2017-01-06T02:23:55.635Z,1024.73
2017-01-06T02:24:18.470Z,1024.78
2017-01-06T02:24:41.716Z,1024.73
2017-01-06T02:25:04.756Z,1024.74
2017-01-06T02:25:27.592Z,1024.83
2017-01-06T02:25:50.177Z,1024.80
2017-01-06T02:26:13.467Z,1024.81
2017-01-06T02:26:36.182Z,1024.79
2017-01-06T02:26:58.627Z,1024.72
2017-01-06T02:27:21.462Z,1024.76
2017-01-06T02:27:44.181Z,1024.85
2017-01-06T02:28:06.825Z,1024.85
2017-01-06T02:28:29.763Z,1024.73
2017-01-06T02:28:52.907Z,1024.81
2017-01-06T02:29:15.844Z,1024.85
2017-01-06T02:29:38.884Z,1024.82
2017-01-06T02:30:01.823Z,1024.75
2017-01-06T02:30:24.861Z,1024.81
2017-01-06T02:30:47.800Z,1024.76
2017-01-06T02:31:10.636Z,1024.73
2017-01-06T02:31:33.471Z,1024.82
2017-01-06T02:31:56.512Z,1024.79
2017-01-06T02:32:19.653Z,1024.73
2017-01-06T02:32:47.157Z,1024.82
2017-01-06T02:33:09.830Z,1024.82
2017-01-06T02:33:33.793Z,1024.81
2017-01-06T02:33:57.857Z,1024.84
2017-01-06T02:34:20.795Z,1024.86
2017-01-06T02:34:43.630Z,1024.82
2017-01-06T02:35:08.923Z,1024.80
2017-01-06T02:35:32.580Z,1024.84
2017-01-06T02:35:55.192Z,1024.86
2017-01-06T02:36:17.839Z,1024.62
2017-01-06T02:36:41.698Z,1024.81
2017-01-06T02:37:04.747Z,1024.86
2017-01-06T02:37:27.780Z,1024.83
2017-01-06T02:37:50.721Z,1024.80
2017-01-06T02:38:13.656Z,1024.81
2017-01-06T02:38:41.200Z,1024.81
2017-01-06T02:39:03.831Z,1024.74
2017-01-06T02:39:25.847Z,1024.81
2017-01-06T02:39:49.189Z,1024.91
2017-01-06T02:40:11.826Z,1024.72
2017-01-06T02:40:34.660Z,1024.67
2017-01-06T02:40:57.911Z,1024.73
2017-01-06T02:41:20.947Z,1024.80
2017-01-06T02:41:49.620Z,1024.84
2017-01-06T02:42:15.935Z,1024.86
2017-01-06T02:43:30.894Z,1024.84
2017-01-06T02:44:03.866Z,1024.89
2017-01-06T02:44:31.002Z,1024.84
2017-01-06T02:46:15.861Z,1024.86
2017-01-06T02:46:43.823Z,1024.87
2017-01-06T02:47:06.856Z,1024.93
2017-01-06T02:47:31.204Z,1024.85
2017-01-06T02:47:54.211Z,1024.84
2017-01-06T02:48:17.821Z,1024.87
2017-01-06T02:48:40.862Z,1024.80
2017-01-06T02:49:04.197Z,1024.79
2017-01-06T02:49:27.556Z,1024.80
2017-01-06T02:49:49.879Z,1024.84
2017-01-06T02:50:17.021Z,1024.80
2017-01-06T02:50:39.850Z,1024.81
2017-01-06T02:51:02.893Z,1024.71
2017-01-06T02:51:26.855Z,1024.83
2017-01-06T02:51:50.188Z,1024.94
2017-01-06T02:52:13.198Z,1024.74
2017-01-06T02:52:36.691Z,1024.80
2017-01-06T02:53:02.599Z,1024.86
2017-01-06T02:53:25.212Z,1024.79
2017-01-06T02:53:48.679Z,1024.82
2017-01-06T02:54:13.050Z,1024.82
2017-01-06T02:54:37.208Z,1025.06
2017-01-06T02:55:04.865Z,1024.90
2017-01-06T02:55:28.207Z,1024.99
2017-01-06T02:55:52.994Z,1024.91
2017-01-06T02:56:15.522Z,1024.86
2017-01-06T02:56:38.970Z,1024.95
2017-01-06T02:57:10.715Z,1024.96
2017-01-06T02:57:41.744Z,1024.93
2017-01-06T02:58:09.903Z,1024.93
2017-01-06T02:58:33.214Z,1025.03
2017-01-06T02:58:58.196Z,1024.86
2017-01-06T02:59:26.498Z,1024.92
2017-01-06T03:00:25.687Z,1024.96
2017-01-06T03:00:54.208Z,1024.95
2017-01-06T03:01:21.802Z,1025.02
2017-01-06T03:01:48.839Z,1024.97
2017-01-06T03:02:11.979Z,1024.92
2017-01-06T03:02:35.531Z,1024.97
2017-01-06T03:02:57.855Z,1024.95
2017-01-06T03:03:51.308Z,1025.04
2017-01-06T03:04:13.836Z,1024.86
2017-01-06T03:04:36.230Z,1024.98
2017-01-06T03:04:59.508Z,1025.07
2017-01-06T03:05:22.222Z,1024.99
2017-01-06T03:05:44.974Z,1025.03
2017-01-06T03:06:11.906Z,1024.92
2017-01-06T03:06:42.324Z,1024.95
2017-01-06T03:07:14.207Z,1025.11
2017-01-06T03:07:36.798Z,1025.04
2017-01-06T03:08:01.886Z,1024.98
2017-01-06T03:08:25.753Z,1024.86
2017-01-06T03:08:49.909Z,1025.00
2017-01-06T03:09:21.757Z,1025.00
2017-01-06T03:09:43.875Z,1025.00
2017-01-06T03:10:43.574Z,1024.85
2017-01-06T03:11:07.536Z,1025.01
2017-01-06T03:12:07.756Z,1024.95
2017-01-06T03:12:30.789Z,1025.03
2017-01-06T03:12:53.829Z,1025.02
2017-01-06T03:13:16.665Z,1025.02
2017-01-06T03:13:39.221Z,1025.04
2017-01-06T03:14:02.225Z,1024.98
2017-01-06T03:14:24.863Z,1025.02
2017-01-06T03:14:52.230Z,1024.97
2017-01-06T03:15:19.955Z,1024.95
2017-01-06T03:15:47.241Z,1024.91
2017-01-06T03:16:41.056Z,1025.11
2017-01-06T03:17:44.750Z,1024.99
2017-01-06T03:18:51.413Z,1024.92
2017-01-06T03:19:21.417Z,1025.12
2017-01-06T03:19:48.758Z,1025.01
2017-01-06T03:20:11.695Z,1025.03
2017-01-06T03:20:39.037Z,1024.89
2017-01-06T03:21:06.078Z,1024.90
2017-01-06T03:21:34.129Z,1024.96
2017-01-06T03:22:01.575Z,1024.99
2017-01-06T03:22:24.715Z,1025.06
2017-01-06T03:22:48.677Z,1025.10
2017-01-06T03:23:11.235Z,1025.01
2017-01-06T03:23:36.908Z,1024.97
2017-01-06T03:24:00.053Z,1024.99
2017-01-06T03:24:23.193Z,1024.97
2017-01-06T03:24:45.944Z,1024.91
2017-01-06T03:25:09.890Z,1025.07
2017-01-06T03:25:37.742Z,1025.05
2017-01-06T03:26:00.885Z,1025.04
2017-01-06T03:26:23.924Z,1024.99
2017-01-06T03:26:46.967Z,1025.00
2017-01-06T03:27:15.741Z,1024.99
2017-01-06T03:27:38.779Z,1025.06
2017-01-06T03:28:02.850Z,1025.05
2017-01-06T03:29:02.134Z,1024.77
2017-01-06T03:29:53.226Z,1025.11
2017-01-06T03:30:15.863Z,1025.15
2017-01-06T03:30:38.700Z,1025.04
2017-01-06T03:31:02.762Z,1025.09
2017-01-06T03:31:25.803Z,1025.14
2017-01-06T03:31:48.434Z,1025.08
2017-01-06T03:32:11.256Z,1025.08
2017-01-06T03:32:33.251Z,1025.13
2017-01-06T03:32:55.916Z,1024.99
2017-01-06T03:33:19.230Z,1024.91
2017-01-06T03:33:42.714Z,1025.06
2017-01-06T03:34:05.344Z,1025.21
2017-01-06T03:34:28.692Z,1025.10
2017-01-06T03:34:51.244Z,1025.09
2017-01-06T03:35:14.159Z,1025.10
2017-01-06T03:35:42.625Z,1025.03
2017-01-06T03:36:09.864Z,1025.04
2017-01-06T03:36:32.801Z,1025.03
2017-01-06T03:37:00.241Z,1025.04
2017-01-06T03:37:28.098Z,1025.16
2017-01-06T03:37:51.650Z,1025.05
2017-01-06T03:38:15.612Z,1025.01
2017-01-06T03:38:38.755Z,1025.05
2017-01-06T03:39:01.590Z,1025.08
2017-01-06T03:39:24.733Z,1025.00
2017-01-06T03:41:01.093Z,1025.02
2017-01-06T03:41:23.928Z,1025.06
2017-01-06T03:41:51.780Z,1025.03
2017-01-06T03:42:14.290Z,1025.07
2017-01-06T03:42:37.452Z,1025.05
2017-01-06T03:43:27.836Z,1024.99
2017-01-06T03:43:59.782Z,1025.07
2017-01-06T03:44:25.178Z,1025.08
2017-01-06T03:44:48.730Z,1024.96
2017-01-06T03:45:16.072Z,1025.10
2017-01-06T03:45:39.624Z,1025.05
2017-01-06T03:46:02.767Z,1024.97
2017-01-06T03:46:26.933Z,1025.07
2017-01-06T03:46:50.178Z,1025.01
2017-01-06T03:47:12.809Z,1025.05
2017-01-06T03:47:41.247Z,1025.06
2017-01-06T03:48:04.009Z,1025.02
2017-01-06T03:48:35.757Z,1025.00
2017-01-06T03:48:58.905Z,1025.12
2017-01-06T03:49:21.943Z,1025.09
2017-01-06T03:49:45.187Z,1025.14
2017-01-06T03:50:08.268Z,1025.06
2017-01-06T03:50:31.370Z,1025.01
2017-01-06T03:50:54.275Z,1025.03
2017-01-06T03:51:16.934Z,1025.00
2017-01-06T03:51:40.589Z,1024.95
2017-01-06T03:52:03.274Z,1025.00
2017-01-06T03:52:26.158Z,1025.04
2017-01-06T03:52:49.265Z,1025.09
2017-01-06T03:53:11.930Z,1025.12
2017-01-06T03:53:34.970Z,1024.95
2017-01-06T03:53:57.908Z,1024.94
2017-01-06T03:54:20.743Z,1024.99
2017-01-06T03:54:48.275Z,1025.04
2017-01-06T03:55:11.945Z,1025.10
2017-01-06T03:55:35.189Z,1025.05
2017-01-06T03:55:57.922Z,1025.06
2017-01-06T03:56:20.859Z,1024.84
2017-01-06T03:56:44.268Z,1025.04
2017-01-06T03:57:07.147Z,1025.07
2017-01-06T03:57:30.185Z,1025.08
2017-01-06T03:57:52.919Z,1025.12
2017-01-06T03:58:15.754Z,1025.04
2017-01-06T03:58:38.694Z,1025.10
2017-01-06T03:59:01.286Z,1025.03
2017-01-06T03:59:27.262Z,1025.06
2017-01-06T03:59:49.965Z,1025.04
2017-01-06T04:00:13.276Z,1025.03
2017-01-06T04:00:35.736Z,1025.14
2017-01-06T04:00:58.572Z,1025.15
2017-01-06T04:01:21.287Z,1025.11
2017-01-06T04:01:44.755Z,1025.11
2017-01-06T04:02:07.795Z,1025.14
2017-01-06T04:02:30.733Z,1025.12
2017-01-06T04:02:53.671Z,1025.12
2017-01-06T04:03:16.293Z,1025.10
2017-01-06T04:03:39.957Z,1025.14
2017-01-06T04:04:02.587Z,1025.06
2017-01-06T04:04:26.968Z,1025.12
2017-01-06T04:04:49.795Z,1025.02
2017-01-06T04:05:12.732Z,1025.12
2017-01-06T04:05:34.953Z,1025.19
2017-01-06T04:05:57.994Z,1025.12
2017-01-06T04:06:20.931Z,1025.15
2017-01-06T04:06:43.767Z,1025.14
2017-01-06T04:07:11.005Z,1025.09
2017-01-06T04:07:34.252Z,1025.08
2017-01-06T04:07:56.984Z,1025.13
2017-01-06T04:08:19.818Z,1025.12
2017-01-06T04:08:42.757Z,1025.13
2017-01-06T04:09:05.592Z,1025.15
2017-01-06T04:09:28.306Z,1025.10
2017-01-06T04:09:50.956Z,1025.09
2017-01-06T04:10:14.202Z,1025.15
2017-01-06T04:10:37.276Z,1025.19
2017-01-06T04:10:59.975Z,1025.18
2017-01-06T04:11:22.913Z,1025.13
2017-01-06T04:11:45.748Z,1025.05
2017-01-06T04:12:08.891Z,1025.06
2017-01-06T04:12:59.169Z,1025.22
2017-01-06T04:13:22.305Z,1025.21
2017-01-06T04:13:44.942Z,1025.08
2017-01-06T04:14:07.778Z,1025.17
2017-01-06T04:14:35.735Z,1025.09
2017-01-06T04:14:58.311Z,1025.19
2017-01-06T04:15:20.994Z,1025.18
2017-01-06T04:15:43.933Z,1025.33
2017-01-06T04:16:06.768Z,1025.16
2017-01-06T04:16:30.833Z,1025.24
2017-01-06T04:16:53.771Z,1025.18
2017-01-06T04:17:16.607Z,1025.20
2017-01-06T04:17:39.311Z,1025.26
2017-01-06T04:18:02.687Z,1025.06
2017-01-06T04:18:25.625Z,1025.09
2017-01-06T04:18:48.319Z,1025.15
2017-01-06T04:19:10.988Z,1025.25
2017-01-06T04:19:33.926Z,1025.07
2017-01-06T04:20:00.961Z,1025.16
2017-01-06T04:20:24.001Z,1025.12
2017-01-06T04:20:46.939Z,1025.25
2017-01-06T04:21:09.774Z,1025.22
2017-01-06T04:21:32.507Z,1025.17
2017-01-06T04:21:56.309Z,1025.17
2017-01-06T04:22:18.998Z,1025.28
2017-01-06T04:22:41.833Z,1025.19
2017-01-06T04:23:04.771Z,1025.30
2017-01-06T04:23:27.708Z,1025.30
2017-01-06T04:23:55.303Z,1025.35
2017-01-06T04:24:17.987Z,1025.34
2017-01-06T04:24:43.792Z,1025.28
2017-01-06T04:25:07.317Z,1025.36
2017-01-06T04:25:29.975Z,1025.21
2017-01-06T04:25:56.190Z,1025.31
2017-01-06T04:26:23.942Z,1025.26
2017-01-06T04:26:47.085Z,1025.35
2017-01-06T04:27:15.858Z,1025.29
2017-01-06T04:27:42.994Z,1025.42
2017-01-06T04:28:11.332Z,1025.23
2017-01-06T04:28:37.678Z,1025.20
2017-01-06T04:29:07.987Z,1025.36
2017-01-06T04:29:40.654Z,1025.38
2017-01-06T04:30:03.323Z,1025.43
2017-01-06T04:30:58.683Z,1025.27
2017-01-06T04:31:23.772Z,1025.33
2017-01-06T04:31:45.993Z,1025.37
2017-01-06T04:32:13.948Z,1025.30
2017-01-06T04:32:42.928Z,1025.21
2017-01-06T04:34:27.275Z,1025.42
2017-01-06T04:35:01.886Z,1025.40
2017-01-06T04:35:33.426Z,1025.37
2017-01-06T04:36:38.041Z,1025.36
2017-01-06T04:37:07.738Z,1025.44
2017-01-06T04:37:30.675Z,1025.37
2017-01-06T04:37:53.319Z,1025.36
2017-01-06T04:38:16.040Z,1025.38
2017-01-06T04:38:38.330Z,1025.40
2017-01-06T04:39:07.331Z,1025.45
2017-01-06T04:39:29.973Z,1025.27
2017-01-06T04:39:52.808Z,1025.33
2017-01-06T04:40:15.951Z,1025.26
2017-01-06T04:40:38.787Z,1025.49
2017-01-06T04:41:02.851Z,1025.42
2017-01-06T04:41:25.339Z,1025.35
2017-01-06T04:42:27.844Z,1025.47
2017-01-06T04:42:50.341Z,1025.49
2017-01-06T04:43:13.343Z,1025.38
2017-01-06T04:43:36.348Z,1025.46
2017-01-06T04:43:59.698Z,1025.45
2017-01-06T04:44:22.636Z,1025.46
2017-01-06T04:44:45.982Z,1025.35
2017-01-06T04:45:09.125Z,1025.34
2017-01-06T04:45:32.985Z,1025.40
2017-01-06T04:45:58.893Z,1025.36
2017-01-06T04:46:22.328Z,1025.37
2017-01-06T04:46:44.974Z,1025.44
2017-01-06T04:47:07.810Z,1025.43
2017-01-06T04:47:30.643Z,1025.42
2017-01-06T04:47:54.345Z,1025.26
2017-01-06T04:48:17.237Z,1025.45
2017-01-06T04:48:40.341Z,1025.41
2017-01-06T04:49:03.010Z,1025.52
2017-01-06T04:49:26.870Z,1025.40
2017-01-06T04:49:50.011Z,1025.40
2017-01-06T04:50:13.258Z,1025.46
2017-01-06T04:50:36.346Z,1025.41
2017-01-06T04:50:59.030Z,1025.48
2017-01-06T04:51:21.968Z,1025.49
2017-01-06T04:51:44.803Z,1025.38
2017-01-06T04:52:07.638Z,1025.51
2017-01-06T04:52:30.357Z,1025.48
2017-01-06T04:52:53.002Z,1025.52
2017-01-06T04:53:16.146Z,1025.46
2017-01-06T04:53:38.981Z,1025.43
2017-01-06T04:54:01.816Z,1025.36
2017-01-06T04:54:24.654Z,1025.41
2017-01-06T04:54:47.355Z,1025.50
2017-01-06T04:55:10.015Z,1025.48
2017-01-06T04:55:32.850Z,1025.50
2017-01-06T04:55:55.890Z,1025.46
2017-01-06T04:56:18.828Z,1025.34
2017-01-06T04:56:41.870Z,1025.28
2017-01-06T04:57:04.806Z,1025.43
2017-01-06T04:57:27.746Z,1025.49
2017-01-06T04:57:50.366Z,1025.51
2017-01-06T04:58:13.005Z,1025.42
2017-01-06T04:58:36.046Z,1025.35
2017-01-06T04:58:58.984Z,1025.31
2017-01-06T04:59:21.819Z,1025.44
2017-01-06T04:59:49.356Z,1025.46
2017-01-06T05:00:11.997Z,1025.49
2017-01-06T05:00:34.831Z,1025.47
2017-01-06T05:00:57.871Z,1025.49
2017-01-06T05:01:21.022Z,1025.47
2017-01-06T05:01:51.339Z,1025.41
2017-01-06T05:02:56.247Z,1025.50
2017-01-06T05:03:27.787Z,1025.44
2017-01-06T05:03:52.978Z,1025.53
2017-01-06T05:04:16.020Z,1025.35
2017-01-06T05:04:39.058Z,1025.45
2017-01-06T05:05:02.816Z,1025.44
2017-01-06T05:05:25.651Z,1025.43
2017-01-06T05:05:53.197Z,1025.41
2017-01-06T05:06:16.033Z,1025.52
2017-01-06T05:06:45.729Z,1025.51
2017-01-06T05:07:14.913Z,1025.40
2017-01-06T05:08:44.922Z,1025.53
2017-01-06T05:09:39.369Z,1025.35
2017-01-06T05:10:02.378Z,1025.31
2017-01-06T05:10:37.257Z,1025.43
2017-01-06T05:11:07.056Z,1025.38
2017-01-06T05:11:35.373Z,1025.37
2017-01-06T05:12:41.059Z,1025.18
2017-01-06T05:13:09.732Z,1025.39
2017-01-06T05:13:41.366Z,1025.43
2017-01-06T05:14:36.059Z,1025.33
2017-01-06T05:14:59.354Z,1025.46
2017-01-06T05:15:22.137Z,1025.46